Carmen, Idaho
Current Conditions -  °F | °C
As of 3:55 AM on Thursday 27 Nov 2014 (Local Time) from KSMN Reporting Station
Overcast Overcast  
Wind Chill: 24°   Ceiling: 200
Heat Index: 30°   Visibility: 3mi
Dew Point: 28°   Wind: 6mph
Humidity: 93%   Direction: 330°NNW
Pressure: 30.17"   Gusts: NA
Location:  45.24°N, 113.89°W
Report Text: KSMN 271055Z AUTO 33005KT 3SM BKN002 OVC100 M01/M02 A3017 RMK AO1
Loading
Personal Weather Stations






























Interactive Weather Map New forecast layout! Learn more

10-Day Weather Forecast

Advertisements
Track Severe Weather on mobile